KDAB/DAB METAR and TAF weather

Enter ICAO airport designator
Station Type Date Time Source
KDAB METAR 2022/07/01 01:53 UTC NOAA

KDAB 010153Z 20003KT 10SM FEW015 FEW055 BKN130 25/22 A3011 RMK AO2 SLP195 T02500222


Station Type Date Time Source
KDAB Decoded METAR 2022/07/01 01:53 UTC NOAA

DAYTONA BEACH INTERNATIONAL, FL, United States (KDAB) 29-10N 81-04W 9M
Jun 30, 2022 - 09:53 PM EDT / 2022.07.01 0153 UTC
Wind: from the SSW (200 degrees) at 3 MPH (3 KT):0
Visibility: 10 mile(s):0
Sky conditions: mostly cloudy
Temperature: 77.0 F (25.0 C)
Dew Point: 72.0 F (22.2 C)
Relative Humidity: 84%
Pressure (altimeter): 30.11 in. Hg (1019 hPa)
ob: KDAB 010153Z 20003KT 10SM FEW015 FEW055 BKN130 25/22 A3011 RMK AO2 SLP195 T02500222
cycle: 2

Station Type Date Time Source
KDAB TAF 2022/06/30 18:41 UTC NOAA

TAF KDAB 301736Z 3018/0118 09007KT P6SM VCTS SCT030CB BKN040 OVC120
TEMPO 3018/3019 3SM TSRA BKN030CB
FM010000 15003KT P6SM VCSH SCT080 BKN140
FM010400 16004KT P6SM SCT080 BKN140
FM011400 16006KT P6SM SCT035 SCT080 BKN200

Example: see airport list